Time;durP1;ratioP1;P1;durP2;ratioP2;P2;SDS_P1;SDS_P2;PMS_P1;PMS_P2;Temp;Humidity;BMP_temperature;BMP_pressure;BME280_temperature;BME280_humidity;BME280_pressure;Samples;Min_cycle;Max_cycle;Signal;HPM_P1;HPM_P2
2021/12/14 00:00:21;;;;;;;4.22;0.98;;;;;;;;;;4973308;28;20077;-60
2021/12/14 00:02:48;;;;;;;1.80;0.68;;;;;;;;;;4975722;28;20101;-60
2021/12/14 00:05:16;;;;;;;2.92;0.82;;;;;;;;;;4973440;28;20077;-60
2021/12/14 00:07:42;;;;;;;3.38;1.02;;;;;;;;;;4969668;28;20098;-61
2021/12/14 00:12:59;;;;;;;2.65;0.65;;;;;;;;;;4972637;28;20057;-61
2021/12/14 00:15:25;;;;;;;3.60;0.82;;;;;;;;;;4972953;28;20258;-62
2021/12/14 00:17:55;;;;;;;2.58;0.82;;;;;;;;;;4977262;28;20931;-61
2021/12/14 00:20:25;;;;;;;3.78;1.00;;;;;;;;;;4992628;28;20050;-62
2021/12/14 00:25:43;;;;;;;4.85;1.30;;;;;;;;;;4976871;28;20391;-61
2021/12/14 00:28:18;;;;;;;5.40;1.55;;;;;;;;;;4972929;28;20053;-62
2021/12/14 00:30:45;;;;;;;2.97;0.75;;;;;;;;;;4977808;28;20519;-62
2021/12/14 00:33:14;;;;;;;1.50;0.40;;;;;;;;;;4977435;28;20047;-61
2021/12/14 00:35:40;;;;;;;3.53;0.77;;;;;;;;;;4975672;28;20043;-62
2021/12/14 00:38:06;;;;;;;1.13;0.50;;;;;;;;;;4977178;28;20038;-61
2021/12/14 00:40:34;;;;;;;1.85;0.70;;;;;;;;;;4980695;28;20566;-60
2021/12/14 00:43:00;;;;;;;0.70;0.35;;;;;;;;;;4977623;28;20058;-60
2021/12/14 00:45:28;;;;;;;3.13;1.00;;;;;;;;;;4979214;28;20399;-61
2021/12/14 00:47:54;;;;;;;1.35;0.70;;;;;;;;;;5012993;28;20042;-61
2021/12/14 00:50:21;;;;;;;2.15;0.98;;;;;;;;;;5011278;28;20100;-62
2021/12/14 00:52:47;;;;;;;1.70;0.70;;;;;;;;;;5013799;28;20128;-61
2021/12/14 00:55:15;;;;;;;3.53;1.30;;;;;;;;;;5013461;28;20121;-61
2021/12/14 00:57:41;;;;;;;2.88;1.33;;;;;;;;;;5011837;28;20121;-60
2021/12/14 01:00:13;;;;;;;3.05;0.90;;;;;;;;;;5013243;28;20045;-61
2021/12/14 01:02:39;;;;;;;4.10;1.52;;;;;;;;;;5013371;28;20047;-63
2021/12/14 01:05:25;;;;;;;2.75;1.23;;;;;;;;;;5012797;28;20037;-61
2021/12/14 01:07:51;;;;;;;1.05;0.50;;;;;;;;;;5012035;28;20049;-60
2021/12/14 01:10:30;;;;;;;1.83;0.85;;;;;;;;;;5013905;28;20153;-61
2021/12/14 01:13:01;;;;;;;3.75;1.25;;;;;;;;;;5013091;28;20046;-59
2021/12/14 01:15:50;;;;;;;4.25;1.15;;;;;;;;;;5013135;28;20068;-59
2021/12/14 01:18:47;;;;;;;2.55;1.02;;;;;;;;;;5012503;28;20040;-61
2021/12/14 01:21:29;;;;;;;7.78;2.15;;;;;;;;;;5011119;28;20095;-62
2021/12/14 01:24:04;;;;;;;5.13;1.10;;;;;;;;;;5013189;28;20049;-60
2021/12/14 01:26:32;;;;;;;3.75;1.73;;;;;;;;;;4992763;28;20064;-61
2021/12/14 01:28:58;;;;;;;6.07;2.80;;;;;;;;;;5011157;28;20069;-58
2021/12/14 01:31:33;;;;;;;4.68;1.73;;;;;;;;;;5011437;28;20042;-58
2021/12/14 01:34:01;;;;;;;3.42;1.42;;;;;;;;;;5010818;28;20069;-60
2021/12/14 01:36:40;;;;;;;5.50;2.22;;;;;;;;;;4993989;28;20083;-61
2021/12/14 01:41:45;;;;;;;3.78;1.80;;;;;;;;;;5010886;28;20462;-60
2021/12/14 01:44:12;;;;;;;5.00;2.28;;;;;;;;;;5010393;28;20116;-60
2021/12/14 01:46:41;;;;;;;4.30;2.20;;;;;;;;;;5010074;28;21302;-58
2021/12/14 01:49:08;;;;;;;8.77;2.42;;;;;;;;;;5011157;28;20042;-56
2021/12/14 01:51:36;;;;;;;3.78;1.52;;;;;;;;;;5011329;28;20125;-59
2021/12/14 01:54:03;;;;;;;5.55;2.22;;;;;;;;;;5011607;28;20081;-60
2021/12/14 01:56:30;;;;;;;6.13;2.33;;;;;;;;;;4992478;28;20040;-56
2021/12/14 01:58:58;;;;;;;5.30;2.42;;;;;;;;;;5011178;28;20466;-57
2021/12/14 02:01:28;;;;;;;2.10;1.08;;;;;;;;;;5010640;28;20038;-60
2021/12/14 02:03:56;;;;;;;7.43;2.70;;;;;;;;;;5012763;28;20042;-59
2021/12/14 02:06:26;;;;;;;5.72;2.55;;;;;;;;;;5010645;28;20065;-58
2021/12/14 02:08:57;;;;;;;4.50;1.95;;;;;;;;;;5011176;28;20041;-63
2021/12/14 02:11:25;;;;;;;2.47;1.63;;;;;;;;;;5010962;28;20360;-57
2021/12/14 02:13:54;;;;;;;6.72;2.92;;;;;;;;;;5011656;28;20037;-70
2021/12/14 02:16:21;;;;;;;6.57;3.17;;;;;;;;;;5012186;28;20379;-64
2021/12/14 02:18:49;;;;;;;4.60;2.03;;;;;;;;;;5012112;28;20033;-65
2021/12/14 02:21:15;;;;;;;4.78;2.85;;;;;;;;;;5015603;28;20065;-69
2021/12/14 02:23:44;;;;;;;10.35;3.38;;;;;;;;;;4993187;28;20053;-66
2021/12/14 02:26:12;;;;;;;5.85;2.63;;;;;;;;;;5012307;28;20093;-65
2021/12/14 02:28:38;;;;;;;10.00;3.03;;;;;;;;;;4990993;28;20073;-60
2021/12/14 02:31:05;;;;;;;10.18;4.15;;;;;;;;;;5010508;28;20200;-57
2021/12/14 02:33:33;;;;;;;12.25;4.32;;;;;;;;;;5009504;28;20040;-60
2021/12/14 02:36:00;;;;;;;5.20;2.85;;;;;;;;;;5010656;28;20030;-60
2021/12/14 02:38:26;;;;;;;5.68;3.22;;;;;;;;;;5008900;28;20132;-55
2021/12/14 02:41:01;;;;;;;7.45;2.97;;;;;;;;;;5010528;28;20052;-57
2021/12/14 02:43:33;;;;;;;8.02;4.30;;;;;;;;;;5008694;28;20057;-57
2021/12/14 02:46:11;;;;;;;8.80;3.35;;;;;;;;;;4990669;28;20086;-55
2021/12/14 02:48:38;;;;;;;9.95;3.85;;;;;;;;;;5009090;28;20407;-56
2021/12/14 02:51:13;;;;;;;11.57;5.05;;;;;;;;;;5011264;28;20052;-54
2021/12/14 02:53:40;;;;;;;7.93;4.57;;;;;;;;;;5009690;28;20049;-59
2021/12/14 02:56:10;;;;;;;8.40;2.67;;;;;;;;;;5011399;28;20105;-58
2021/12/14 02:58:36;;;;;;;6.57;3.47;;;;;;;;;;5010797;28;20038;-59
2021/12/14 03:01:04;;;;;;;8.00;2.88;;;;;;;;;;5012881;28;20042;-59
2021/12/14 03:03:30;;;;;;;6.25;3.03;;;;;;;;;;4994824;28;20753;-61
2021/12/14 03:05:59;;;;;;;5.93;3.47;;;;;;;;;;5011588;28;20046;-62
2021/12/14 03:08:27;;;;;;;7.03;3.90;;;;;;;;;;4992643;28;20077;-61
2021/12/14 03:11:10;;;;;;;6.10;2.95;;;;;;;;;;5011810;28;20069;-63
2021/12/14 03:13:44;;;;;;;6.40;3.40;;;;;;;;;;5009982;28;20108;-64
2021/12/14 03:16:19;;;;;;;6.93;3.30;;;;;;;;;;5012145;28;20041;-65
2021/12/14 03:18:47;;;;;;;10.27;5.15;;;;;;;;;;5010173;28;20449;-66
2021/12/14 03:21:16;;;;;;;6.60;3.90;;;;;;;;;;5010575;28;20045;-64
2021/12/14 03:23:47;;;;;;;9.95;4.20;;;;;;;;;;4994236;28;20064;-65
2021/12/14 03:26:15;;;;;;;15.50;5.63;;;;;;;;;;4994650;28;20038;-64
2021/12/14 03:28:45;;;;;;;8.85;4.28;;;;;;;;;;5009422;28;20228;-64
2021/12/14 03:31:11;;;;;;;7.63;4.45;;;;;;;;;;5008816;28;20525;-64
2021/12/14 03:33:41;;;;;;;7.72;3.63;;;;;;;;;;5008871;28;20044;-63
2021/12/14 03:36:12;;;;;;;13.93;5.20;;;;;;;;;;5010763;28;20105;-64
2021/12/14 03:38:41;;;;;;;11.95;5.57;;;;;;;;;;5005679;28;20042;-63
2021/12/14 03:41:13;;;;;;;7.10;4.13;;;;;;;;;;4978292;28;20026;-63
2021/12/14 03:43:40;;;;;;;6.07;2.80;;;;;;;;;;4993418;28;20438;-64
2021/12/14 03:46:06;;;;;;;12.68;6.43;;;;;;;;;;5009398;28;20091;-63
2021/12/14 03:48:32;;;;;;;11.93;4.15;;;;;;;;;;5009621;28;20065;-64
2021/12/14 03:50:59;;;;;;;9.30;4.05;;;;;;;;;;4992556;28;20519;-64
2021/12/14 03:53:25;;;;;;;14.15;5.80;;;;;;;;;;4975921;28;20045;-64
2021/12/14 03:55:53;;;;;;;11.88;5.68;;;;;;;;;;5008936;28;20465;-64
2021/12/14 03:58:21;;;;;;;10.02;3.72;;;;;;;;;;5008380;28;20044;-66
2021/12/14 04:00:54;;;;;;;10.30;5.13;;;;;;;;;;5010117;28;20045;-66
2021/12/14 04:03:21;;;;;;;11.18;5.07;;;;;;;;;;5009837;28;20042;-64
2021/12/14 04:05:47;;;;;;;6.82;3.65;;;;;;;;;;5009406;28;20553;-64
2021/12/14 04:08:15;;;;;;;10.18;3.63;;;;;;;;;;4992243;28;20050;-66
2021/12/14 04:10:42;;;;;;;11.75;3.50;;;;;;;;;;5012175;28;20056;-65
2021/12/14 04:13:08;;;;;;;6.00;3.63;;;;;;;;;;4995588;28;20401;-65
2021/12/14 04:15:34;;;;;;;9.18;4.35;;;;;;;;;;4994407;28;20038;-65
2021/12/14 04:18:00;;;;;;;5.35;3.15;;;;;;;;;;5013578;28;20064;-66
2021/12/14 04:20:37;;;;;;;7.47;3.65;;;;;;;;;;5011992;28;20038;-65
2021/12/14 04:23:07;;;;;;;12.50;4.95;;;;;;;;;;5010063;28;20054;-64
2021/12/14 04:25:38;;;;;;;11.75;5.40;;;;;;;;;;5012040;28;20034;-65
2021/12/14 04:28:06;;;;;;;18.83;6.60;;;;;;;;;;5012611;28;20068;-64
2021/12/14 04:30:32;;;;;;;16.00;5.97;;;;;;;;;;5001441;28;20039;-64
2021/12/14 04:33:00;;;;;;;14.20;5.38;;;;;;;;;;5007775;28;20046;-66
2021/12/14 04:35:26;;;;;;;17.00;6.63;;;;;;;;;;4993868;28;20041;-64
2021/12/14 04:37:54;;;;;;;8.45;4.30;;;;;;;;;;5010500;28;20042;-65
2021/12/14 04:54:04;;;;;;;10.38;5.35;;;;;;;;;;5007548;28;20053;-65
2021/12/14 04:56:34;;;;;;;12.20;4.13;;;;;;;;;;5007774;28;20038;-65
2021/12/14 04:59:11;;;;;;;10.55;4.38;;;;;;;;;;5009689;28;20049;-66
2021/12/14 05:01:40;;;;;;;7.60;3.92;;;;;;;;;;5010441;28;20526;-65
2021/12/14 05:04:08;;;;;;;12.40;4.95;;;;;;;;;;5013867;28;20042;-64
2021/12/14 05:06:47;;;;;;;9.90;3.75;;;;;;;;;;4994767;28;20578;-64
2021/12/14 05:09:24;;;;;;;10.82;4.38;;;;;;;;;;5013891;28;20103;-65
2021/12/14 05:11:51;;;;;;;13.68;5.00;;;;;;;;;;5012937;28;20158;-64
2021/12/14 05:14:17;;;;;;;25.52;7.72;;;;;;;;;;5015977;28;20087;-65
2021/12/14 05:16:49;;;;;;;12.32;5.95;;;;;;;;;;5012858;28;20959;-65
2021/12/14 05:19:15;;;;;;;19.20;9.63;;;;;;;;;;5013470;28;20092;-64
2021/12/14 05:21:43;;;;;;;11.45;3.78;;;;;;;;;;5013445;28;20049;-65
2021/12/14 05:24:10;;;;;;;13.93;4.53;;;;;;;;;;5014183;28;20037;-65
2021/12/14 05:26:36;;;;;;;10.05;3.97;;;;;;;;;;5011134;28;20117;-65
2021/12/14 05:29:03;;;;;;;9.57;4.20;;;;;;;;;;4994872;28;20045;-66
2021/12/14 05:31:29;;;;;;;10.70;4.65;;;;;;;;;;5014890;28;20032;-65
2021/12/14 05:33:55;;;;;;;6.05;2.70;;;;;;;;;;5011962;28;20046;-64
2021/12/14 05:36:22;;;;;;;9.35;3.47;;;;;;;;;;5011386;28;20049;-65
2021/12/14 05:39:02;;;;;;;8.65;4.28;;;;;;;;;;5011750;28;20793;-66
2021/12/14 05:44:21;;;;;;;9.88;4.60;;;;;;;;;;5014504;28;20072;-66
2021/12/14 05:46:51;;;;;;;5.63;2.80;;;;;;;;;;5013462;28;20081;-65
2021/12/14 05:49:22;;;;;;;10.45;3.28;;;;;;;;;;5015786;28;20040;-64
2021/12/14 05:51:48;;;;;;;4.63;2.45;;;;;;;;;;4997332;28;20041;-65
2021/12/14 05:54:18;;;;;;;6.35;3.58;;;;;;;;;;5012746;28;20331;-64
2021/12/14 05:56:44;;;;;;;9.73;3.03;;;;;;;;;;4998195;28;20022;-64
2021/12/14 05:59:10;;;;;;;11.05;4.20;;;;;;;;;;5013830;28;20052;-65
2021/12/14 06:01:36;;;;;;;12.40;4.85;;;;;;;;;;5012738;28;20068;-64
2021/12/14 06:04:04;;;;;;;9.43;4.90;;;;;;;;;;5014481;28;20497;-65
2021/12/14 06:06:32;;;;;;;6.72;3.10;;;;;;;;;;5014030;28;20073;-64
2021/12/14 06:09:03;;;;;;;5.45;2.58;;;;;;;;;;5002972;28;20960;-64
2021/12/14 06:11:29;;;;;;;5.30;3.03;;;;;;;;;;5013522;28;20123;-64
2021/12/14 06:13:56;;;;;;;15.00;4.53;;;;;;;;;;5012156;28;20458;-64
2021/12/14 06:16:25;;;;;;;4.63;2.55;;;;;;;;;;5013062;28;20072;-65
2021/12/14 06:18:51;;;;;;;7.30;3.42;;;;;;;;;;4993926;28;20045;-66
2021/12/14 06:21:18;;;;;;;9.38;3.00;;;;;;;;;;5013042;28;20068;-65
2021/12/14 06:23:44;;;;;;;7.45;4.03;;;;;;;;;;5013715;28;20069;-63
2021/12/14 06:26:10;;;;;;;10.15;3.50;;;;;;;;;;5011128;28;20144;-63
2021/12/14 06:28:36;;;;;;;13.77;3.08;;;;;;;;;;5010760;28;20949;-64
2021/12/14 06:31:02;;;;;;;7.25;2.85;;;;;;;;;;5010553;28;20045;-63
2021/12/14 06:33:29;;;;;;;7.60;4.07;;;;;;;;;;5010535;28;20076;-62
2021/12/14 06:35:58;;;;;;;8.98;3.45;;;;;;;;;;5010726;28;20144;-63
2021/12/14 06:38:29;;;;;;;5.32;3.10;;;;;;;;;;5010763;28;20049;-61
2021/12/14 06:40:57;;;;;;;5.00;2.67;;;;;;;;;;5010859;28;20077;-63
2021/12/14 06:43:28;;;;;;;6.50;2.45;;;;;;;;;;5010653;28;20608;-62
2021/12/14 06:45:56;;;;;;;5.25;2.30;;;;;;;;;;5010472;28;20053;-63
2021/12/14 06:48:25;;;;;;;6.90;3.20;;;;;;;;;;4990279;28;20033;-63
2021/12/14 06:50:53;;;;;;;10.48;4.20;;;;;;;;;;5010983;28;20034;-64
2021/12/14 06:53:19;;;;;;;7.63;3.60;;;;;;;;;;5008826;28;20038;-64
2021/12/14 06:55:46;;;;;;;6.75;3.50;;;;;;;;;;5010134;28;20042;-64
2021/12/14 06:58:12;;;;;;;5.38;2.25;;;;;;;;;;5009353;28;20180;-64
2021/12/14 07:00:40;;;;;;;5.43;2.83;;;;;;;;;;5008989;28;22553;-64
2021/12/14 07:03:06;;;;;;;8.27;3.58;;;;;;;;;;5009237;28;20127;-64
2021/12/14 07:05:32;;;;;;;10.20;3.63;;;;;;;;;;5009664;28;20049;-64
2021/12/14 07:07:59;;;;;;;6.22;3.20;;;;;;;;;;5009716;28;20038;-63
2021/12/14 07:10:24;;;;;;;6.80;2.33;;;;;;;;;;5008537;28;20528;-63
2021/12/14 07:12:51;;;;;;;7.68;3.33;;;;;;;;;;5008463;28;20046;-64
2021/12/14 07:15:20;;;;;;;5.43;3.28;;;;;;;;;;5010227;28;20109;-64
2021/12/14 07:17:52;;;;;;;7.60;2.40;;;;;;;;;;5007553;28;20038;-64
2021/12/14 07:20:23;;;;;;;5.80;3.00;;;;;;;;;;5008963;28;20517;-66
2021/12/14 07:22:50;;;;;;;4.70;2.22;;;;;;;;;;5010890;28;20129;-63
2021/12/14 07:25:21;;;;;;;8.77;3.50;;;;;;;;;;5008643;28;20053;-63
2021/12/14 07:27:48;;;;;;;5.72;2.50;;;;;;;;;;4990816;28;20720;-65
2021/12/14 07:30:17;;;;;;;7.05;3.13;;;;;;;;;;5010802;28;20042;-65
2021/12/14 07:32:49;;;;;;;7.32;2.63;;;;;;;;;;4992128;28;20135;-63
2021/12/14 07:35:14;;;;;;;6.63;2.28;;;;;;;;;;5011261;28;20451;-64
2021/12/14 07:37:40;;;;;;;13.63;2.72;;;;;;;;;;5007938;28;20136;-64
2021/12/14 07:40:06;;;;;;;4.70;2.28;;;;;;;;;;5010284;28;20132;-64
2021/12/14 07:42:32;;;;;;;5.18;2.42;;;;;;;;;;4984593;28;20045;-63
2021/12/14 07:44:58;;;;;;;7.18;1.77;;;;;;;;;;4994398;28;20372;-64
2021/12/14 07:47:24;;;;;;;6.90;3.08;;;;;;;;;;5010829;28;20599;-63
2021/12/14 07:49:54;;;;;;;4.55;2.20;;;;;;;;;;5012757;28;20404;-64
2021/12/14 07:52:35;;;;;;;8.77;4.85;;;;;;;;;;5011689;28;20125;-64
2021/12/14 07:55:03;;;;;;;7.68;3.80;;;;;;;;;;5012252;28;20049;-63
2021/12/14 07:57:32;;;;;;;9.60;3.08;;;;;;;;;;5010090;28;20604;-64
2021/12/14 08:00:00;;;;;;;4.28;2.08;;;;;;;;;;4995852;28;20184;-64
2021/12/14 08:02:51;;;;;;;18.83;6.15;;;;;;;;;;5010774;28;20061;-63
2021/12/14 08:05:28;;;;;;;6.05;2.90;;;;;;;;;;5006362;28;20042;-65
2021/12/14 08:08:18;;;;;;;5.65;2.58;;;;;;;;;;5010481;28;20119;-63
2021/12/14 08:11:08;;;;;;;7.57;3.15;;;;;;;;;;5010007;28;20506;-65
2021/12/14 08:13:34;;;;;;;9.07;3.95;;;;;;;;;;5009933;28;20030;-63
2021/12/14 08:16:00;;;;;;;6.63;2.22;;;;;;;;;;5008975;28;20049;-64
2021/12/14 08:18:27;;;;;;;7.43;3.55;;;;;;;;;;5007901;28;20041;-64
2021/12/14 08:20:58;;;;;;;6.07;2.67;;;;;;;;;;4994881;28;20045;-65
2021/12/14 08:23:24;;;;;;;14.88;4.05;;;;;;;;;;5009705;28;20037;-64
2021/12/14 08:25:52;;;;;;;6.68;2.92;;;;;;;;;;5010409;28;20039;-64
2021/12/14 08:28:21;;;;;;;7.13;3.92;;;;;;;;;;5012039;28;20063;-64
2021/12/14 08:31:07;;;;;;;3.33;1.80;;;;;;;;;;5010311;28;20120;-65
2021/12/14 08:33:32;;;;;;;10.15;3.45;;;;;;;;;;5009119;28;20048;-64
2021/12/14 08:36:01;;;;;;;6.22;3.25;;;;;;;;;;5009825;28;20437;-64
2021/12/14 08:38:30;;;;;;;6.35;3.33;;;;;;;;;;5012512;28;20056;-64
2021/12/14 08:41:00;;;;;;;3.88;2.00;;;;;;;;;;5013772;28;20046;-64
2021/12/14 08:43:32;;;;;;;5.13;2.25;;;;;;;;;;5012542;28;20050;-64
2021/12/14 08:46:10;;;;;;;8.30;3.80;;;;;;;;;;5013581;28;20466;-64
2021/12/14 08:48:38;;;;;;;9.43;3.17;;;;;;;;;;5013514;28;20406;-65
2021/12/14 08:51:15;;;;;;;7.28;3.15;;;;;;;;;;5014154;28;20053;-64
2021/12/14 08:53:43;;;;;;;4.40;2.13;;;;;;;;;;5011867;28;20069;-64
2021/12/14 08:56:11;;;;;;;6.63;2.83;;;;;;;;;;5013097;28;20172;-64
2021/12/14 08:58:37;;;;;;;3.92;2.78;;;;;;;;;;5013593;28;20060;-64
2021/12/14 09:01:08;;;;;;;6.30;3.08;;;;;;;;;;5012126;28;20034;-65
2021/12/14 09:03:39;;;;;;;5.07;2.05;;;;;;;;;;5013843;28;20076;-64
2021/12/14 09:06:07;;;;;;;5.95;2.63;;;;;;;;;;5013148;28;20447;-64
2021/12/14 09:08:33;;;;;;;4.35;2.50;;;;;;;;;;5012309;28;20481;-63
2021/12/14 09:11:00;;;;;;;3.30;1.08;;;;;;;;;;5000496;28;20041;-63
2021/12/14 09:13:27;;;;;;;3.05;1.95;;;;;;;;;;5011680;28;20045;-64
2021/12/14 09:15:59;;;;;;;1.85;0.82;;;;;;;;;;5013023;28;20492;-64
2021/12/14 09:18:26;;;;;;;4.00;1.83;;;;;;;;;;4966610;28;20045;-63
2021/12/14 09:20:59;;;;;;;11.07;3.05;;;;;;;;;;5012376;28;20152;-64
2021/12/14 09:23:29;;;;;;;6.30;2.22;;;;;;;;;;4993850;28;20518;-65
2021/12/14 09:25:55;;;;;;;4.20;2.53;;;;;;;;;;4995222;28;20037;-65
2021/12/14 09:28:22;;;;;;;7.32;2.58;;;;;;;;;;4992688;28;20048;-65
2021/12/14 09:30:50;;;;;;;8.18;3.58;;;;;;;;;;5001203;28;20057;-65
2021/12/14 09:33:16;;;;;;;7.35;2.20;;;;;;;;;;5011182;28;20491;-64
2021/12/14 09:35:44;;;;;;;6.65;2.00;;;;;;;;;;5010992;28;20059;-65
2021/12/14 09:38:11;;;;;;;5.85;2.38;;;;;;;;;;5012998;28;20029;-67
2021/12/14 09:40:44;;;;;;;6.43;3.08;;;;;;;;;;4993950;28;20272;-66
2021/12/14 09:43:10;;;;;;;4.15;2.05;;;;;;;;;;5012325;28;20053;-66
2021/12/14 09:45:42;;;;;;;2.55;1.35;;;;;;;;;;4978085;28;20136;-66
2021/12/14 09:48:10;;;;;;;2.58;1.38;;;;;;;;;;5012664;28;20041;-66
2021/12/14 09:50:37;;;;;;;8.02;2.50;;;;;;;;;;5013241;28;20100;-65
2021/12/14 09:53:05;;;;;;;1.75;1.13;;;;;;;;;;5013605;28;20049;-65
2021/12/14 09:55:33;;;;;;;7.82;3.25;;;;;;;;;;4993200;28;20033;-64
2021/12/14 09:58:01;;;;;;;3.95;1.75;;;;;;;;;;5010630;28;20052;-65
2021/12/14 10:00:32;;;;;;;5.68;2.65;;;;;;;;;;4994519;28;20044;-64
2021/12/14 10:02:59;;;;;;;4.85;1.95;;;;;;;;;;5012892;28;20053;-64
2021/12/14 10:05:36;;;;;;;4.20;1.48;;;;;;;;;;5011508;28;20037;-66
2021/12/14 10:08:13;;;;;;;3.65;1.48;;;;;;;;;;4993879;28;20774;-64
2021/12/14 10:10:40;;;;;;;5.78;2.85;;;;;;;;;;5011863;28;20064;-66
2021/12/14 10:13:06;;;;;;;7.85;2.72;;;;;;;;;;5011046;28;20066;-66
2021/12/14 10:15:34;;;;;;;3.13;1.23;;;;;;;;;;4995295;28;20088;-65
2021/12/14 10:18:20;;;;;;;4.00;1.77;;;;;;;;;;5011109;28;20048;-65
2021/12/14 10:20:51;;;;;;;2.10;1.27;;;;;;;;;;5010870;28;20565;-65
2021/12/14 10:23:20;;;;;;;2.65;1.48;;;;;;;;;;4996063;28;20046;-65
2021/12/14 10:25:46;;;;;;;3.83;2.10;;;;;;;;;;4992461;28;20042;-65
2021/12/14 10:28:15;;;;;;;6.60;2.25;;;;;;;;;;4993172;28;20045;-64
2021/12/14 10:30:49;;;;;;;2.70;1.73;;;;;;;;;;4999134;28;20037;-66
2021/12/14 10:33:15;;;;;;;15.93;3.20;;;;;;;;;;5012679;28;20046;-64
2021/12/14 10:35:47;;;;;;;7.63;2.03;;;;;;;;;;4992589;28;20038;-65
2021/12/14 10:38:25;;;;;;;4.63;2.33;;;;;;;;;;5011324;28;20068;-65
2021/12/14 10:43:38;;;;;;;1.95;1.48;;;;;;;;;;5012914;28;20069;-65
2021/12/14 10:46:09;;;;;;;6.30;2.30;;;;;;;;;;5011585;28;20044;-64
2021/12/14 10:48:37;;;;;;;3.63;1.73;;;;;;;;;;5011115;28;20036;-64
2021/12/14 10:51:04;;;;;;;4.60;2.65;;;;;;;;;;5010169;28;20033;-64
2021/12/14 10:53:31;;;;;;;3.58;1.83;;;;;;;;;;5010157;28;20746;-65
2021/12/14 10:55:59;;;;;;;3.78;1.98;;;;;;;;;;5010781;28;20042;-63
2021/12/14 10:58:26;;;;;;;14.63;2.60;;;;;;;;;;4998770;28;20049;-64
2021/12/14 11:01:03;;;;;;;8.48;2.17;;;;;;;;;;5010968;28;20083;-63
2021/12/14 11:03:33;;;;;;;4.43;2.42;;;;;;;;;;5010773;28;20053;-65
2021/12/14 11:06:00;;;;;;;5.35;2.42;;;;;;;;;;5010153;28;20042;-65
2021/12/14 11:11:03;;;;;;;5.53;2.63;;;;;;;;;;5011888;28;20042;-65
2021/12/14 11:13:37;;;;;;;3.85;1.35;;;;;;;;;;5009459;28;20133;-64
2021/12/14 11:16:05;;;;;;;2.42;1.35;;;;;;;;;;5010591;28;20041;-65
2021/12/14 11:18:31;;;;;;;5.70;2.55;;;;;;;;;;5011861;28;20045;-66
2021/12/14 11:21:02;;;;;;;9.63;2.95;;;;;;;;;;4999465;28;20119;-66
2021/12/14 11:23:30;;;;;;;4.78;1.67;;;;;;;;;;5009731;28;20050;-64
2021/12/14 11:25:59;;;;;;;6.07;2.25;;;;;;;;;;5009991;28;20041;-64
2021/12/14 11:28:32;;;;;;;4.40;1.90;;;;;;;;;;5009343;28;20144;-65
2021/12/14 11:31:06;;;;;;;5.50;2.47;;;;;;;;;;5010712;28;20116;-65
2021/12/14 11:33:35;;;;;;;8.20;2.55;;;;;;;;;;5010092;28;20045;-66
2021/12/14 11:36:05;;;;;;;8.38;2.60;;;;;;;;;;5010816;28;20064;-65
2021/12/14 11:38:49;;;;;;;3.90;1.92;;;;;;;;;;5009516;28;20043;-62
2021/12/14 11:41:33;;;;;;;11.43;2.22;;;;;;;;;;5010076;28;20060;-64
2021/12/14 11:44:01;;;;;;;3.55;1.95;;;;;;;;;;5009686;28;20133;-65
2021/12/14 11:46:29;;;;;;;7.75;2.55;;;;;;;;;;5008274;28;20048;-65
2021/12/14 11:48:58;;;;;;;2.65;1.50;;;;;;;;;;5008679;28;20394;-67
2021/12/14 11:51:24;;;;;;;2.90;1.80;;;;;;;;;;5008548;28;20425;-65
2021/12/14 11:53:51;;;;;;;2.25;1.48;;;;;;;;;;4992792;28;20410;-66
2021/12/14 11:56:18;;;;;;;5.85;2.05;;;;;;;;;;4997158;28;20430;-65
2021/12/14 11:58:44;;;;;;;2.70;2.05;;;;;;;;;;5009349;28;20038;-64
2021/12/14 12:01:16;;;;;;;5.68;2.72;;;;;;;;;;5011179;28;20052;-65
2021/12/14 12:03:44;;;;;;;4.18;1.23;;;;;;;;;;5010444;28;20038;-64
2021/12/14 12:06:14;;;;;;;2.72;1.25;;;;;;;;;;5009495;28;20620;-65
2021/12/14 12:11:38;;;;;;;5.75;2.60;;;;;;;;;;5008036;28;20417;-65
2021/12/14 12:14:24;;;;;;;5.32;2.20;;;;;;;;;;5016097;28;20049;-65
2021/12/14 12:16:51;;;;;;;6.15;2.95;;;;;;;;;;5012744;28;21886;-65
2021/12/14 12:19:21;;;;;;;4.38;2.28;;;;;;;;;;4995302;28;20142;-65
2021/12/14 12:21:48;;;;;;;5.00;1.52;;;;;;;;;;5014757;28;22383;-65
2021/12/14 12:24:33;;;;;;;4.90;1.38;;;;;;;;;;4998379;28;20057;-65
2021/12/14 12:27:16;;;;;;;6.80;2.10;;;;;;;;;;5017038;28;20049;-65
2021/12/14 12:29:42;;;;;;;10.80;2.88;;;;;;;;;;5013544;28;20083;-64
2021/12/14 12:32:18;;;;;;;6.78;2.67;;;;;;;;;;5013204;28;20053;-66
2021/12/14 12:34:44;;;;;;;7.53;1.33;;;;;;;;;;5011180;28;20041;-64
2021/12/14 12:37:14;;;;;;;6.15;2.25;;;;;;;;;;5012712;28;20037;-65
2021/12/14 12:39:46;;;;;;;4.70;2.50;;;;;;;;;;5013444;28;20037;-65
2021/12/14 12:42:14;;;;;;;7.72;2.60;;;;;;;;;;5014320;28;20034;-62
2021/12/14 12:44:41;;;;;;;7.13;2.55;;;;;;;;;;5014026;28;20043;-65
2021/12/14 12:47:09;;;;;;;8.30;2.30;;;;;;;;;;5012926;28;20050;-65
2021/12/14 12:49:42;;;;;;;2.85;1.48;;;;;;;;;;4995141;28;20520;-64
2021/12/14 12:52:14;;;;;;;4.10;1.48;;;;;;;;;;5016205;28;20037;-64
2021/12/14 12:54:42;;;;;;;4.00;1.58;;;;;;;;;;5017925;28;20504;-64
2021/12/14 12:57:09;;;;;;;1.98;0.80;;;;;;;;;;5003930;28;20049;-63
2021/12/14 12:59:37;;;;;;;2.55;0.98;;;;;;;;;;5015600;28;20050;-65
2021/12/14 13:02:11;;;;;;;3.97;1.38;;;;;;;;;;5017485;28;20093;-64
2021/12/14 13:04:39;;;;;;;1.35;0.95;;;;;;;;;;5016081;28;20592;-66
2021/12/14 13:07:06;;;;;;;1.30;0.82;;;;;;;;;;5015550;28;20741;-65
2021/12/14 13:09:52;;;;;;;3.60;1.00;;;;;;;;;;5013345;28;20175;-65
2021/12/14 13:12:36;;;;;;;1.17;0.82;;;;;;;;;;5013285;28;20048;-63
2021/12/14 13:15:01;;;;;;;2.53;1.40;;;;;;;;;;4995193;28;20026;-63
2021/12/14 13:17:27;;;;;;;1.45;0.82;;;;;;;;;;4998615;28;20530;-65
2021/12/14 13:19:59;;;;;;;2.53;1.55;;;;;;;;;;5012759;28;20045;-64
2021/12/14 13:22:26;;;;;;;15.70;1.10;;;;;;;;;;5012684;28;20709;-64
2021/12/14 13:24:52;;;;;;;2.13;1.58;;;;;;;;;;5010253;28;20057;-63
2021/12/14 13:27:21;;;;;;;2.28;1.35;;;;;;;;;;5011893;28;20137;-63
2021/12/14 13:29:48;;;;;;;1.92;1.25;;;;;;;;;;5009949;28;20120;-63
2021/12/14 13:32:17;;;;;;;4.47;2.08;;;;;;;;;;5011374;28;20041;-63
2021/12/14 13:34:43;;;;;;;4.32;1.25;;;;;;;;;;5010166;28;20033;-63
2021/12/14 13:37:10;;;;;;;2.55;1.65;;;;;;;;;;5010492;28;20045;-61
2021/12/14 13:39:37;;;;;;;3.13;1.17;;;;;;;;;;5012457;28;20037;-64
2021/12/14 13:42:03;;;;;;;2.03;1.15;;;;;;;;;;5009955;28;21909;-63
2021/12/14 13:44:33;;;;;;;3.53;1.50;;;;;;;;;;5009678;28;20042;-63
2021/12/14 13:47:00;;;;;;;1.02;0.60;;;;;;;;;;5011018;28;20091;-61
2021/12/14 13:49:27;;;;;;;2.35;1.13;;;;;;;;;;5009026;28;20067;-62
2021/12/14 13:51:54;;;;;;;4.03;2.00;;;;;;;;;;5010162;28;20552;-65
2021/12/14 13:54:20;;;;;;;2.53;1.10;;;;;;;;;;5010910;28;20033;-63
2021/12/14 13:56:47;;;;;;;4.07;2.28;;;;;;;;;;5010475;28;20770;-62
2021/12/14 13:59:15;;;;;;;1.45;0.85;;;;;;;;;;5012371;28;21825;-61
2021/12/14 14:01:44;;;;;;;0.82;0.68;;;;;;;;;;5009615;28;20100;-63
2021/12/14 14:04:12;;;;;;;3.20;1.23;;;;;;;;;;5011499;28;20806;-62
2021/12/14 14:06:38;;;;;;;5.22;1.25;;;;;;;;;;5009368;28;20041;-61
2021/12/14 14:09:09;;;;;;;2.03;0.75;;;;;;;;;;5010669;28;20490;-63
2021/12/14 14:11:55;;;;;;;3.40;1.55;;;;;;;;;;5010815;28;20038;-63
2021/12/14 14:14:24;;;;;;;0.65;0.60;;;;;;;;;;4993433;28;20030;-63
2021/12/14 14:17:05;;;;;;;2.85;1.48;;;;;;;;;;5012334;28;20123;-64
2021/12/14 14:19:42;;;;;;;4.25;1.52;;;;;;;;;;5010064;28;20094;-64
2021/12/14 14:22:10;;;;;;;0.75;0.68;;;;;;;;;;5011354;28;20034;-64
2021/12/14 14:24:38;;;;;;;4.43;1.77;;;;;;;;;;5009585;28;20066;-63
2021/12/14 14:27:05;;;;;;;3.92;1.48;;;;;;;;;;5010264;28;20083;-63
2021/12/14 14:29:57;;;;;;;2.95;1.25;;;;;;;;;;4992017;28;20083;-64
2021/12/14 14:32:29;;;;;;;11.02;1.35;;;;;;;;;;4990271;28;20533;-66
2021/12/14 14:34:58;;;;;;;2.38;1.27;;;;;;;;;;5009638;28;20033;-64
2021/12/14 14:37:34;;;;;;;4.13;1.65;;;;;;;;;;5009316;28;20094;-63
2021/12/14 14:40:14;;;;;;;1.63;1.10;;;;;;;;;;5009461;28;20498;-62
2021/12/14 14:42:50;;;;;;;2.33;1.60;;;;;;;;;;5009220;28;20053;-63
2021/12/14 14:45:18;;;;;;;3.72;0.95;;;;;;;;;;4998170;28;20045;-62
2021/12/14 14:47:44;;;;;;;3.88;1.52;;;;;;;;;;5007934;28;20053;-64
2021/12/14 14:50:36;;;;;;;6.03;1.45;;;;;;;;;;5010183;28;20133;-63
2021/12/14 14:53:10;;;;;;;0.93;0.52;;;;;;;;;;4989931;28;20030;-64
2021/12/14 14:55:40;;;;;;;2.40;1.30;;;;;;;;;;5008864;28;20037;-63
2021/12/14 14:58:20;;;;;;;1.92;1.17;;;;;;;;;;5010317;28;20048;-63
2021/12/14 15:01:04;;;;;;;0.93;0.70;;;;;;;;;;4990340;28;21955;-63
2021/12/14 15:03:40;;;;;;;1.60;0.68;;;;;;;;;;5009760;28;20087;-62
2021/12/14 15:06:11;;;;;;;2.22;1.30;;;;;;;;;;5008340;28;20048;-63
2021/12/14 15:08:48;;;;;;;0.93;0.57;;;;;;;;;;5009565;28;20041;-65
2021/12/14 15:11:20;;;;;;;2.47;1.15;;;;;;;;;;5010669;28;20152;-62
2021/12/14 15:13:53;;;;;;;7.57;1.98;;;;;;;;;;4996247;28;20037;-63
2021/12/14 15:16:41;;;;;;;2.40;1.52;;;;;;;;;;5009108;28;20042;-65
2021/12/14 15:19:10;;;;;;;2.30;1.05;;;;;;;;;;4980020;28;20544;-64
2021/12/14 15:21:45;;;;;;;2.15;1.20;;;;;;;;;;5010924;28;20065;-64
2021/12/14 15:24:26;;;;;;;3.67;1.35;;;;;;;;;;4997416;28;20132;-62
2021/12/14 15:27:12;;;;;;;3.90;1.40;;;;;;;;;;5009769;28;20045;-62
2021/12/14 15:29:44;;;;;;;4.35;1.58;;;;;;;;;;5010147;28;20613;-63